createdAt,value
2023-04-14T00:00:23.677Z,78.70
2023-04-14T00:02:50.860Z,78.60
2023-04-14T00:05:17.562Z,78.50
2023-04-14T00:07:44.222Z,79.70
2023-04-14T00:10:11.407Z,79.30
2023-04-14T00:12:37.990Z,79.50
2023-04-14T00:15:05.261Z,80.80
2023-04-14T00:17:32.282Z,82.30
2023-04-14T00:19:58.836Z,83.20
2023-04-14T00:22:25.667Z,82.40
2023-04-14T00:24:52.199Z,82.80
2023-04-14T00:27:18.781Z,83.90
2023-04-14T00:29:45.392Z,80.80
2023-04-14T00:32:11.973Z,83.60
2023-04-14T00:34:38.531Z,84.10
2023-04-14T00:37:05.275Z,84.10
2023-04-14T00:39:31.987Z,84.50
2023-04-14T00:42:00.877Z,84.10
2023-04-14T00:44:28.136Z,83.10
2023-04-14T00:46:55.146Z,82.90
2023-04-14T00:49:21.788Z,83.50
2023-04-14T00:51:48.961Z,84.50
2023-04-14T00:54:17.649Z,84.30
2023-04-14T00:56:44.602Z,84.20
2023-04-14T00:59:11.844Z,84.20
2023-04-14T01:01:38.777Z,84.80
2023-04-14T01:04:06.333Z,84.20
2023-04-14T01:06:33.244Z,83.10
2023-04-14T01:09:00.748Z,83.20
2023-04-14T01:11:42.761Z,84.10
2023-04-14T01:14:18.338Z,84.20
2023-04-14T01:16:49.493Z,84.10
2023-04-14T01:19:25.578Z,84.10
2023-04-14T01:21:54.504Z,84.00
2023-04-14T01:24:26.415Z,84.10
2023-04-14T01:27:16.455Z,83.70
2023-04-14T01:30:02.895Z,84.30
2023-04-14T01:32:31.585Z,84.10
2023-04-14T01:35:01.609Z,84.50
2023-04-14T01:37:34.078Z,85.40
2023-04-14T01:40:03.683Z,85.30
2023-04-14T01:42:31.540Z,86.40
2023-04-14T01:45:01.178Z,86.30
2023-04-14T01:47:29.442Z,86.30
2023-04-14T01:49:56.870Z,85.80
2023-04-14T01:52:24.730Z,84.60
2023-04-14T01:54:52.874Z,83.90
2023-04-14T01:57:23.074Z,84.80
2023-04-14T01:59:51.168Z,84.10
2023-04-14T02:02:18.681Z,84.10
2023-04-14T02:04:46.948Z,83.90
2023-04-14T02:07:13.882Z,83.90
2023-04-14T02:09:41.715Z,83.90
2023-04-14T02:12:09.223Z,85.20
2023-04-14T02:14:36.545Z,84.80
2023-04-14T02:17:03.848Z,85.60
2023-04-14T02:19:30.881Z,86.70
2023-04-14T02:21:58.156Z,85.40
2023-04-14T02:24:24.833Z,85.20
2023-04-14T02:26:58.681Z,84.90
2023-04-14T02:29:25.912Z,85.60
2023-04-14T02:32:06.031Z,85.20
2023-04-14T02:34:37.464Z,84.30
2023-04-14T02:37:08.569Z,83.90
2023-04-14T02:39:40.641Z,85.20
2023-04-14T02:42:15.785Z,85.30
2023-04-14T02:44:49.804Z,84.90
2023-04-14T02:47:22.061Z,85.20
2023-04-14T02:49:50.299Z,86.50
2023-04-14T02:52:18.366Z,86.60
2023-04-14T02:54:45.645Z,88.00
2023-04-14T02:57:12.659Z,86.50
2023-04-14T02:59:40.169Z,87.20
2023-04-14T03:02:07.025Z,86.90
2023-04-14T03:04:35.114Z,87.10
2023-04-14T03:07:02.166Z,88.00
2023-04-14T03:09:30.045Z,87.40
2023-04-14T03:11:57.334Z,86.40
2023-04-14T03:14:24.539Z,87.00
2023-04-14T03:16:53.632Z,86.90
2023-04-14T03:19:22.407Z,87.00
2023-04-14T03:21:53.781Z,86.80
2023-04-14T03:24:24.446Z,86.60
2023-04-14T03:26:52.398Z,87.60
2023-04-14T03:29:21.054Z,87.10
2023-04-14T03:31:48.101Z,88.90
2023-04-14T03:34:16.005Z,87.40
2023-04-14T03:36:43.180Z,87.00
2023-04-14T03:39:11.612Z,86.80
2023-04-14T03:41:39.632Z,85.10
2023-04-14T03:44:07.494Z,87.60
2023-04-14T03:46:34.100Z,86.90
2023-04-14T03:49:06.633Z,87.40
2023-04-14T03:51:34.001Z,87.30
2023-04-14T03:54:02.424Z,87.40
2023-04-14T03:56:29.232Z,86.70
2023-04-14T03:58:56.924Z,87.70
2023-04-14T04:01:25.810Z,86.90
2023-04-14T04:03:54.105Z,87.00
2023-04-14T04:06:20.972Z,87.10
2023-04-14T04:08:48.161Z,86.40
2023-04-14T04:11:18.856Z,87.00
2023-04-14T04:13:46.261Z,87.20
2023-04-14T04:16:13.568Z,87.60
2023-04-14T04:18:43.082Z,86.90
2023-04-14T04:21:10.094Z,87.00
2023-04-14T04:23:37.433Z,87.60
2023-04-14T04:26:04.047Z,88.00
2023-04-14T04:28:31.185Z,88.40
2023-04-14T04:30:59.374Z,87.70
2023-04-14T04:33:27.523Z,88.20
2023-04-14T04:35:54.994Z,87.90
2023-04-14T04:38:21.581Z,88.30
2023-04-14T04:40:48.318Z,88.30
2023-04-14T04:43:16.647Z,90.10
2023-04-14T04:45:55.731Z,88.70
2023-04-14T04:48:22.306Z,88.50
2023-04-14T04:50:48.848Z,88.10
2023-04-14T04:53:15.517Z,87.90
2023-04-14T04:55:42.388Z,89.00
2023-04-14T04:58:09.159Z,88.80
2023-04-14T05:00:35.994Z,89.50
2023-04-14T05:03:02.979Z,89.50
2023-04-14T05:05:30.580Z,87.90
2023-04-14T05:07:57.159Z,87.70
2023-04-14T05:10:23.780Z,87.90
2023-04-14T05:12:50.645Z,87.10
2023-04-14T05:15:17.257Z,86.60
2023-04-14T05:17:43.944Z,85.20
2023-04-14T05:20:10.791Z,84.70
2023-04-14T05:22:37.856Z,85.20
2023-04-14T05:25:04.581Z,85.10
2023-04-14T05:27:31.708Z,84.30
2023-04-14T05:29:58.287Z,83.90
2023-04-14T05:32:25.768Z,83.90
2023-04-14T05:34:53.673Z,84.00
2023-04-14T05:37:20.274Z,84.00
2023-04-14T05:39:47.114Z,84.80
2023-04-14T05:42:13.666Z,85.30
2023-04-14T05:44:40.545Z,84.20
2023-04-14T05:47:07.161Z,84.20
2023-04-14T05:49:33.787Z,84.10
2023-04-14T05:52:00.518Z,84.20
2023-04-14T05:54:27.115Z,84.20
2023-04-14T05:56:53.703Z,84.20
2023-04-14T05:59:20.995Z,81.90
2023-04-14T06:01:47.697Z,82.00
2023-04-14T06:04:15.534Z,81.10
2023-04-14T06:06:42.465Z,80.10
2023-04-14T06:09:09.036Z,79.30
2023-04-14T06:11:36.137Z,79.00
2023-04-14T06:14:03.084Z,77.30
2023-04-14T06:16:29.926Z,76.40
2023-04-14T06:18:56.668Z,76.40
2023-04-14T06:21:23.261Z,75.40
2023-04-14T06:23:49.844Z,76.50
2023-04-14T06:26:16.394Z,76.50
2023-04-14T06:28:43.955Z,76.50
2023-04-14T06:31:10.864Z,76.70
2023-04-14T06:33:37.388Z,75.70
2023-04-14T06:36:04.125Z,76.50
2023-04-14T06:38:30.705Z,75.00
2023-04-14T06:40:57.524Z,71.30
2023-04-14T06:43:24.089Z,72.50
2023-04-14T06:45:52.555Z,72.40
2023-04-14T06:48:19.418Z,72.10
2023-04-14T06:50:52.336Z,71.20
2023-04-14T06:53:18.908Z,69.60
2023-04-14T06:55:45.461Z,70.00
2023-04-14T06:58:12.669Z,68.30
2023-04-14T07:00:39.263Z,67.90
2023-04-14T07:03:06.057Z,66.50
2023-04-14T07:05:32.682Z,68.00
2023-04-14T07:07:59.262Z,67.90
2023-04-14T07:10:25.982Z,65.10
2023-04-14T07:12:52.512Z,64.40
2023-04-14T07:15:19.135Z,61.70
2023-04-14T07:17:45.821Z,63.20
2023-04-14T07:20:12.656Z,62.90
2023-04-14T07:22:39.490Z,61.80
2023-04-14T07:25:06.180Z,61.10
2023-04-14T07:27:32.929Z,58.60
2023-04-14T07:29:59.579Z,56.20
2023-04-14T07:32:26.519Z,55.20
2023-04-14T07:34:53.083Z,51.20
2023-04-14T07:37:20.789Z,51.60
2023-04-14T07:39:47.393Z,53.10
2023-04-14T07:42:14.006Z,54.00
2023-04-14T07:44:40.816Z,53.70
2023-04-14T07:47:07.412Z,53.50
2023-04-14T07:49:34.002Z,52.40
2023-04-14T07:52:01.366Z,50.00
2023-04-14T07:54:28.215Z,45.50
2023-04-14T07:56:54.761Z,39.50
2023-04-14T07:59:21.383Z,35.80
2023-04-14T08:01:48.637Z,35.60
2023-04-14T08:04:15.483Z,29.50
2023-04-14T08:06:42.283Z,25.30
2023-04-14T08:09:08.863Z,24.40
2023-04-14T08:11:35.438Z,23.00
2023-04-14T08:14:02.019Z,22.50
2023-04-14T08:16:29.142Z,17.40
2023-04-14T08:18:57.872Z,16.40
2023-04-14T08:21:24.776Z,14.40
2023-04-14T08:23:52.443Z,12.50
2023-04-14T08:26:19.054Z,14.70
2023-04-14T08:28:46.983Z,11.80
2023-04-14T08:31:13.535Z,7.80
2023-04-14T08:33:40.478Z,7.80
2023-04-14T08:36:07.242Z,6.80
2023-04-14T08:38:33.788Z,7.80
2023-04-14T08:41:01.401Z,6.70
2023-04-14T08:43:28.524Z,4.70
2023-04-14T08:45:55.456Z,3.20
2023-04-14T08:48:24.367Z,3.20
2023-04-14T08:51:12.399Z,3.20
2023-04-14T08:53:42.812Z,3.20
2023-04-14T08:56:11.181Z,3.00
2023-04-14T08:58:38.037Z,3.10
2023-04-14T09:01:05.616Z,4.20
2023-04-14T09:03:32.558Z,3.00
2023-04-14T09:05:59.544Z,2.90
2023-04-14T09:08:26.972Z,4.30
2023-04-14T09:10:54.096Z,2.80
2023-04-14T09:13:21.146Z,4.30
2023-04-14T09:15:48.216Z,5.80
2023-04-14T09:18:15.585Z,6.40
2023-04-14T09:20:42.414Z,6.80
2023-04-14T09:23:12.133Z,5.20
2023-04-14T09:25:39.552Z,6.30
2023-04-14T09:28:06.249Z,5.90
2023-04-14T09:30:32.932Z,8.30
2023-04-14T09:33:00.634Z,6.20
2023-04-14T09:35:44.274Z,7.20
2023-04-14T09:38:10.866Z,7.20
2023-04-14T09:40:39.078Z,7.20
2023-04-14T09:43:06.242Z,7.10
2023-04-14T09:45:45.662Z,5.70
2023-04-14T09:48:13.420Z,6.10
2023-04-14T09:50:59.247Z,6.60
2023-04-14T09:53:29.632Z,6.80
2023-04-14T09:55:56.961Z,7.10
2023-04-14T09:58:26.877Z,6.10
2023-04-14T10:00:55.909Z,8.00
2023-04-14T10:03:35.999Z,8.10
2023-04-14T10:06:05.743Z,7.80
2023-04-14T10:08:37.207Z,8.60
2023-04-14T10:11:33.113Z,9.00
2023-04-14T10:14:09.229Z,5.80
2023-04-14T10:16:36.175Z,4.60
2023-04-14T10:19:03.743Z,1.70
2023-04-14T10:21:30.760Z,1.00
2023-04-14T10:23:57.838Z,1.00
2023-04-14T10:26:24.836Z,1.00
2023-04-14T10:28:52.024Z,1.00
2023-04-14T10:31:29.449Z,1.00
2023-04-14T10:33:56.124Z,1.00
2023-04-14T10:36:23.972Z,1.00
2023-04-14T10:38:57.029Z,1.00
2023-04-14T10:41:24.113Z,1.00
2023-04-14T10:43:50.684Z,1.00
2023-04-14T10:46:18.614Z,1.00
2023-04-14T10:48:46.590Z,1.00
2023-04-14T10:51:16.226Z,1.00
2023-04-14T10:53:47.593Z,1.00
2023-04-14T10:56:14.326Z,1.00
2023-04-14T10:58:41.068Z,1.00
2023-04-14T11:01:28.112Z,1.00
2023-04-14T11:03:56.336Z,1.00
2023-04-14T11:06:41.750Z,1.00
2023-04-14T11:09:22.807Z,1.00
2023-04-14T11:11:49.344Z,1.00
2023-04-14T11:14:16.103Z,1.00
2023-04-14T11:16:54.046Z,1.00
2023-04-14T11:19:25.871Z,1.00
2023-04-14T11:21:55.212Z,1.00
2023-04-14T11:24:22.577Z,1.00
2023-04-14T11:26:53.498Z,1.00
2023-04-14T11:29:20.190Z,1.00
2023-04-14T11:31:47.190Z,1.00
2023-04-14T11:34:13.782Z,1.00
2023-04-14T11:36:40.400Z,1.00
2023-04-14T11:39:06.958Z,1.00
2023-04-14T11:41:33.905Z,1.00
2023-04-14T11:44:00.567Z,1.00
2023-04-14T11:46:27.242Z,1.00
2023-04-14T11:48:54.919Z,1.00
2023-04-14T11:51:21.547Z,1.00
2023-04-14T11:53:48.192Z,1.00
2023-04-14T11:56:15.355Z,1.00
2023-04-14T11:58:41.943Z,1.00
2023-04-14T12:01:08.663Z,1.00
2023-04-14T12:06:03.083Z,1.00
2023-04-14T12:08:30.410Z,1.00
2023-04-14T12:10:57.867Z,1.00
2023-04-14T12:13:24.739Z,1.00
2023-04-14T12:15:52.765Z,1.00
2023-04-14T12:20:55.384Z,1.00
2023-04-14T12:23:22.276Z,1.00
2023-04-14T12:28:25.463Z,1.00
2023-04-14T12:30:52.940Z,1.00
2023-04-14T12:38:14.887Z,1.00
2023-04-14T12:43:10.325Z,1.00
2023-04-14T12:45:40.328Z,1.00
2023-04-14T12:50:33.967Z,1.00
2023-04-14T12:53:01.433Z,1.00
2023-04-14T12:55:29.737Z,1.00
2023-04-14T12:57:57.000Z,1.00
2023-04-14T13:00:24.955Z,1.00
2023-04-14T13:02:51.848Z,1.00
2023-04-14T13:05:18.766Z,1.00
2023-04-14T13:07:46.552Z,1.00
2023-04-14T13:10:13.329Z,1.00
2023-04-14T13:12:40.332Z,1.00
2023-04-14T13:17:34.204Z,1.00
2023-04-14T13:20:01.840Z,1.00
2023-04-14T13:22:28.864Z,1.00
2023-04-14T13:24:58.303Z,1.00
2023-04-14T13:27:24.965Z,1.00
2023-04-14T13:29:51.548Z,1.00
2023-04-14T13:32:18.467Z,1.00
2023-04-14T13:34:46.263Z,1.00
2023-04-14T13:37:12.887Z,1.00
2023-04-14T13:39:39.462Z,1.00
2023-04-14T13:42:05.979Z,1.00
2023-04-14T13:44:33.427Z,1.00
2023-04-14T13:47:00.021Z,1.00
2023-04-14T13:49:27.494Z,1.00
2023-04-14T13:51:54.051Z,1.00
2023-04-14T13:54:20.875Z,1.00
2023-04-14T13:56:47.470Z,1.00
2023-04-14T13:59:16.167Z,1.00
2023-04-14T14:01:42.829Z,1.00
2023-04-14T14:04:09.998Z,1.00
2023-04-14T14:06:37.251Z,1.00
2023-04-14T14:09:07.264Z,1.00
2023-04-14T14:11:34.470Z,1.00
2023-04-14T14:14:01.348Z,1.00
2023-04-14T14:18:57.935Z,1.00
2023-04-14T14:21:24.950Z,1.00
2023-04-14T14:23:51.621Z,1.00
2023-04-14T14:26:18.339Z,1.00
2023-04-14T14:28:45.685Z,1.00
2023-04-14T14:31:12.733Z,1.00
2023-04-14T14:33:39.492Z,1.00
2023-04-14T14:38:33.219Z,1.00
2023-04-14T14:40:59.773Z,1.00
2023-04-14T14:43:26.356Z,1.00
2023-04-14T14:45:52.928Z,1.00
2023-04-14T14:48:20.747Z,1.00
2023-04-14T14:50:47.407Z,1.00
2023-04-14T14:53:13.913Z,1.00
2023-04-14T14:55:40.628Z,1.00
2023-04-14T14:58:08.388Z,1.00
2023-04-14T15:00:35.382Z,1.00
2023-04-14T15:03:02.308Z,1.00
2023-04-14T15:07:56.044Z,1.00
2023-04-14T15:12:49.625Z,1.00
2023-04-14T15:15:18.995Z,1.00
2023-04-14T15:17:48.571Z,1.00
2023-04-14T15:20:15.974Z,1.00
2023-04-14T15:22:42.528Z,1.00
2023-04-14T15:39:54.059Z,1.00
2023-04-14T15:42:20.732Z,1.00
2023-04-14T15:44:48.635Z,1.00
2023-04-14T15:47:15.361Z,1.00
2023-04-14T15:49:41.974Z,1.00
2023-04-14T15:59:32.734Z,1.00
2023-04-14T16:02:01.567Z,1.00
2023-04-14T16:04:28.700Z,1.00
2023-04-14T16:06:55.548Z,1.00
2023-04-14T16:09:22.283Z,1.00
2023-04-14T16:11:49.123Z,1.00
2023-04-14T16:14:15.906Z,1.00
2023-04-14T16:16:46.892Z,1.00
2023-04-14T16:19:15.284Z,1.00
2023-04-14T16:21:42.613Z,1.00
2023-04-14T16:24:09.989Z,1.00
2023-04-14T16:26:37.601Z,1.00
2023-04-14T16:31:31.697Z,1.00
2023-04-14T16:33:58.310Z,1.00
2023-04-14T16:38:52.914Z,1.00
2023-04-14T16:41:21.497Z,1.00
2023-04-14T16:43:48.235Z,1.00
2023-04-14T16:46:14.942Z,1.00
2023-04-14T16:48:41.547Z,1.00
2023-04-14T16:51:09.082Z,1.00
2023-04-14T16:53:36.455Z,1.00
2023-04-14T16:56:06.268Z,1.00
2023-04-14T16:58:32.991Z,1.00
2023-04-14T17:01:00.546Z,1.00
2023-04-14T17:03:27.263Z,1.00
2023-04-14T17:05:54.644Z,1.00
2023-04-14T17:08:21.263Z,1.00
2023-04-14T17:10:47.936Z,1.00
2023-04-14T17:13:14.576Z,1.00
2023-04-14T17:15:42.465Z,1.00
2023-04-14T17:23:03.946Z,1.00
2023-04-14T17:42:42.498Z,1.00
2023-04-14T17:50:05.300Z,1.00
2023-04-14T17:52:32.822Z,1.00
2023-04-14T17:54:59.922Z,1.80
2023-04-14T17:57:26.476Z,2.60
2023-04-14T18:07:15.364Z,15.50
2023-04-14T18:09:41.889Z,17.30
2023-04-14T18:12:08.529Z,20.50
2023-04-14T18:14:35.782Z,20.00
2023-04-14T18:17:02.642Z,19.50
2023-04-14T18:19:29.324Z,19.00
2023-04-14T18:21:56.815Z,19.30
2023-04-14T18:29:21.096Z,19.70
2023-04-14T18:31:48.172Z,19.70
2023-04-14T18:39:10.906Z,25.80
2023-04-14T18:41:37.684Z,29.20
2023-04-14T18:44:04.344Z,29.00
2023-04-14T18:46:30.992Z,28.80
2023-04-14T18:48:57.670Z,29.90
2023-04-14T18:51:24.311Z,22.40
2023-04-14T18:53:50.941Z,19.10
2023-04-14T18:56:18.540Z,19.30
2023-04-14T18:58:46.214Z,16.70
2023-04-14T19:01:12.863Z,15.70
2023-04-14T19:03:39.494Z,13.10
2023-04-14T19:06:06.161Z,10.80
2023-04-14T19:08:32.947Z,11.40
2023-04-14T19:28:16.576Z,20.30
2023-04-14T19:35:39.062Z,22.00
2023-04-14T20:00:13.939Z,28.20
2023-04-14T22:52:39.322Z,52.00
